createdAt,value
2017-04-04T00:00:42.833Z,12.80
2017-04-04T00:01:41.870Z,12.80
2017-04-04T00:02:40.864Z,12.80
2017-04-04T00:03:39.411Z,12.80
2017-04-04T00:04:38.004Z,12.70
2017-04-04T00:05:37.120Z,12.80
2017-04-04T00:06:36.098Z,12.80
2017-04-04T00:07:35.520Z,12.70
2017-04-04T00:08:34.484Z,12.70
2017-04-04T00:09:33.479Z,12.60
2017-04-04T00:10:32.537Z,12.60
2017-04-04T00:11:31.523Z,12.60
2017-04-04T00:12:30.868Z,12.50
2017-04-04T00:13:29.893Z,12.50
2017-04-04T00:14:28.533Z,12.50
2017-04-04T00:15:27.896Z,12.50
2017-04-04T00:16:26.879Z,12.40
2017-04-04T00:17:26.023Z,12.40
2017-04-04T00:18:24.601Z,12.40
2017-04-04T00:19:23.580Z,12.40
2017-04-04T00:20:22.191Z,12.40
2017-04-04T00:21:21.180Z,12.40
2017-04-04T00:22:20.160Z,12.30
2017-04-04T00:23:19.203Z,12.30
2017-04-04T00:24:17.782Z,12.30
2017-04-04T00:25:16.747Z,12.30
2017-04-04T00:26:15.745Z,12.30
2017-04-04T00:27:14.423Z,12.30
2017-04-04T00:28:13.426Z,12.30
2017-04-04T00:29:12.484Z,12.30
2017-04-04T00:30:11.521Z,12.30
2017-04-04T00:31:10.487Z,12.30
2017-04-04T00:32:09.474Z,12.20
2017-04-04T00:33:08.471Z,12.20
2017-04-04T00:34:07.470Z,12.20
2017-04-04T00:35:06.768Z,12.10
2017-04-04T00:36:05.736Z,12.10
2017-04-04T00:37:04.831Z,12.10
2017-04-04T00:38:03.815Z,12.10
2017-04-04T00:39:02.835Z,12.10
2017-04-04T00:40:01.796Z,12.10
2017-04-04T00:41:00.824Z,12.10
2017-04-04T00:42:00.184Z,12.20
2017-04-04T00:42:59.195Z,12.20
2017-04-04T00:43:58.583Z,12.30
2017-04-04T00:44:57.622Z,12.30
2017-04-04T00:45:56.231Z,12.30
2017-04-04T00:46:55.183Z,12.20
2017-04-04T00:47:54.148Z,12.20
2017-04-04T00:48:53.127Z,12.20
2017-04-04T00:49:52.248Z,12.10
2017-04-04T00:50:51.263Z,12.10
2017-04-04T00:51:50.279Z,12.00
2017-04-04T00:52:49.303Z,12.00
2017-04-04T00:53:48.272Z,12.00
2017-04-04T00:54:47.249Z,11.90
2017-04-04T00:55:46.272Z,11.90
2017-04-04T00:56:45.222Z,11.90
2017-04-04T00:57:44.276Z,11.90
2017-04-04T00:58:43.254Z,11.90
2017-04-04T00:59:42.291Z,11.90
2017-04-04T01:00:41.251Z,11.80
2017-04-04T01:01:40.357Z,11.80
2017-04-04T01:02:39.379Z,11.80
2017-04-04T01:03:38.736Z,11.80
2017-04-04T01:04:37.716Z,11.80
2017-04-04T01:05:36.711Z,11.70
2017-04-04T01:06:35.723Z,11.70
2017-04-04T01:07:35.119Z,11.70
2017-04-04T01:08:34.119Z,11.70
2017-04-04T01:09:33.107Z,11.70
2017-04-04T01:10:32.131Z,11.70
2017-04-04T01:11:31.155Z,11.70
2017-04-04T01:12:29.903Z,11.70
2017-04-04T01:13:28.916Z,11.70
2017-04-04T01:14:28.299Z,11.70
2017-04-04T01:15:27.311Z,11.60
2017-04-04T01:16:26.320Z,11.60
2017-04-04T01:17:25.398Z,11.60
2017-04-04T01:18:24.372Z,11.60
2017-04-04T01:19:22.988Z,11.60
2017-04-04T01:20:21.989Z,11.40
2017-04-04T01:21:20.533Z,11.40
2017-04-04T01:22:19.940Z,11.50
2017-04-04T01:23:18.971Z,11.40
2017-04-04T01:24:17.956Z,11.40
2017-04-04T01:25:16.987Z,11.40
2017-04-04T01:26:15.976Z,11.30
2017-04-04T01:27:14.942Z,11.30
2017-04-04T01:28:14.371Z,11.30
2017-04-04T01:29:12.968Z,11.30
2017-04-04T01:30:12.060Z,11.10
2017-04-04T01:31:11.100Z,11.00
2017-04-04T01:32:10.087Z,11.00
2017-04-04T01:33:09.069Z,11.00
2017-04-04T01:34:08.093Z,11.00
2017-04-04T01:35:06.719Z,11.00
2017-04-04T01:36:05.707Z,11.10
2017-04-04T01:37:04.876Z,11.00
2017-04-04T01:38:03.875Z,11.10
2017-04-04T01:39:02.869Z,11.10
2017-04-04T01:40:01.836Z,11.10
2017-04-04T01:41:00.847Z,11.20
2017-04-04T01:42:00.204Z,11.10
2017-04-04T01:42:58.794Z,11.10
2017-04-04T01:43:57.391Z,11.10
2017-04-04T01:44:56.738Z,11.00
2017-04-04T01:45:55.751Z,11.00
2017-04-04T01:46:54.325Z,11.00
2017-04-04T01:47:53.357Z,11.00
2017-04-04T01:48:52.367Z,10.90
2017-04-04T01:49:50.960Z,11.00
2017-04-04T01:50:49.944Z,11.00
2017-04-04T01:51:48.971Z,11.00
2017-04-04T01:52:47.971Z,10.90
2017-04-04T01:53:47.003Z,10.80
2017-04-04T01:54:46.004Z,10.70
2017-04-04T01:55:45.392Z,10.70
2017-04-04T01:56:44.419Z,10.70
2017-04-04T01:57:43.394Z,10.70
2017-04-04T01:58:42.431Z,10.70
2017-04-04T01:59:41.407Z,10.70
2017-04-04T02:00:40.440Z,10.70
2017-04-04T02:01:39.513Z,10.60
2017-04-04T02:02:38.506Z,10.60
2017-04-04T02:03:37.555Z,10.50
2017-04-04T02:04:36.627Z,10.50
2017-04-04T02:05:35.651Z,10.50
2017-04-04T02:06:34.629Z,10.50
2017-04-04T02:07:33.648Z,10.50
2017-04-04T02:08:32.610Z,10.50
2017-04-04T02:09:31.737Z,10.50
2017-04-04T02:10:30.720Z,10.50
2017-04-04T02:11:29.808Z,10.50
2017-04-04T02:12:28.747Z,10.40
2017-04-04T02:13:27.944Z,10.40
2017-04-04T02:14:26.619Z,10.40
2017-04-04T02:15:25.311Z,10.40
2017-04-04T02:16:24.392Z,10.40
2017-04-04T02:17:23.448Z,10.40
2017-04-04T02:18:22.459Z,10.40
2017-04-04T02:19:21.508Z,10.40
2017-04-04T02:20:20.939Z,10.40
2017-04-04T02:21:19.687Z,10.40
2017-04-04T02:22:19.064Z,10.40
2017-04-04T02:23:18.058Z,10.40
2017-04-04T02:24:17.437Z,10.40
2017-04-04T02:25:16.463Z,10.40
2017-04-04T02:26:15.470Z,10.40
2017-04-04T02:27:14.492Z,10.40
2017-04-04T02:28:13.075Z,10.40
2017-04-04T02:29:12.423Z,10.40
2017-04-04T02:30:11.440Z,10.30
2017-04-04T02:31:10.437Z,10.30
2017-04-04T02:32:09.427Z,10.30
2017-04-04T02:33:08.148Z,10.40
2017-04-04T02:34:07.186Z,10.30
2017-04-04T02:35:06.522Z,10.30
2017-04-04T02:36:05.523Z,10.30
2017-04-04T02:37:04.967Z,10.40
2017-04-04T02:38:03.959Z,10.30
2017-04-04T02:39:03.063Z,10.30
2017-04-04T02:40:02.068Z,10.30
2017-04-04T02:41:01.059Z,10.30
2017-04-04T02:42:00.055Z,10.30
2017-04-04T02:42:59.047Z,10.40
2017-04-04T02:43:58.464Z,10.40
2017-04-04T02:44:57.495Z,10.30
2017-04-04T02:45:56.500Z,10.30
2017-04-04T02:46:55.527Z,10.40
2017-04-04T02:47:54.540Z,10.40
2017-04-04T02:48:53.516Z,10.40
2017-04-04T02:49:52.559Z,10.40
2017-04-04T02:50:51.563Z,10.40
2017-04-04T02:51:50.632Z,10.30
2017-04-04T02:52:49.991Z,10.30
2017-04-04T02:53:48.996Z,10.30
2017-04-04T02:54:47.612Z,10.30
2017-04-04T02:55:46.183Z,10.20
2017-04-04T02:56:45.223Z,10.20
2017-04-04T02:57:44.225Z,10.20
2017-04-04T02:58:43.656Z,10.20
2017-04-04T02:59:42.688Z,10.10
2017-04-04T03:00:41.735Z,10.10
2017-04-04T03:01:40.658Z,10.10
2017-04-04T03:02:39.319Z,10.10
2017-04-04T03:03:38.351Z,10.00
2017-04-04T03:04:37.407Z,10.00
2017-04-04T03:05:36.755Z,10.00
2017-04-04T03:06:35.751Z,9.90
2017-04-04T03:07:34.751Z,9.90
2017-04-04T03:08:33.796Z,9.90
2017-04-04T03:09:32.775Z,9.90
2017-04-04T03:10:31.775Z,9.90
2017-04-04T03:11:30.727Z,9.90
2017-04-04T03:12:29.780Z,9.90
2017-04-04T03:13:28.772Z,9.90
2017-04-04T03:14:28.519Z,9.90
2017-04-04T03:15:28.227Z,9.90
2017-04-04T03:16:27.262Z,9.90
2017-04-04T03:17:26.736Z,9.90
2017-04-04T03:18:25.724Z,9.80
2017-04-04T03:19:24.342Z,9.90
2017-04-04T03:20:23.020Z,9.80
2017-04-04T03:21:21.644Z,9.90
2017-04-04T03:22:20.627Z,9.80
2017-04-04T03:23:19.680Z,9.70
2017-04-04T03:24:18.671Z,9.70
2017-04-04T03:25:17.679Z,9.60
2017-04-04T03:26:16.326Z,9.70
2017-04-04T03:27:15.350Z,9.70
2017-04-04T03:28:14.332Z,9.80
2017-04-04T03:29:13.386Z,9.70
2017-04-04T03:30:12.384Z,9.80
2017-04-04T03:31:11.406Z,9.80
2017-04-04T03:32:09.971Z,9.90
2017-04-04T03:33:08.972Z,9.80
2017-04-04T03:34:07.963Z,9.80
2017-04-04T03:35:06.927Z,9.80
2017-04-04T03:36:05.955Z,9.80
2017-04-04T03:37:04.600Z,9.80
2017-04-04T03:38:03.599Z,9.70
2017-04-04T03:39:02.160Z,9.70
2017-04-04T03:40:00.783Z,9.70
2017-04-04T03:40:59.836Z,9.60
2017-04-04T03:41:58.832Z,9.50
2017-04-04T03:42:57.447Z,9.60
2017-04-04T03:43:56.435Z,9.50
2017-04-04T03:44:55.800Z,9.50
2017-04-04T03:45:54.825Z,9.60
2017-04-04T03:46:53.831Z,9.60
2017-04-04T03:47:52.867Z,9.60
2017-04-04T03:48:51.890Z,9.60
2017-04-04T03:49:51.103Z,9.50
2017-04-04T03:50:49.682Z,9.60
2017-04-04T03:51:49.103Z,9.40
2017-04-04T03:52:48.095Z,9.40
2017-04-04T03:53:47.170Z,9.50
2017-04-04T03:54:46.203Z,9.50
2017-04-04T03:55:45.223Z,9.50
2017-04-04T03:56:44.216Z,9.50
2017-04-04T03:57:42.866Z,9.50
2017-04-04T03:58:41.884Z,9.50
2017-04-04T03:59:40.834Z,9.50
2017-04-04T04:00:39.819Z,9.40
2017-04-04T04:01:39.010Z,9.40
2017-04-04T04:02:38.031Z,9.30
2017-04-04T04:03:37.228Z,9.30
2017-04-04T04:04:36.571Z,9.20
2017-04-04T04:05:35.543Z,9.10
2017-04-04T04:06:34.500Z,9.10
2017-04-04T04:07:33.509Z,9.10
2017-04-04T04:08:32.484Z,9.00
2017-04-04T04:09:31.528Z,8.90
2017-04-04T04:10:30.520Z,8.90
2017-04-04T04:11:29.471Z,8.90
2017-04-04T04:12:28.896Z,8.90
2017-04-04T04:13:27.864Z,8.90
2017-04-04T04:14:26.450Z,8.90
2017-04-04T04:15:25.472Z,8.90
2017-04-04T04:16:24.418Z,8.90
2017-04-04T04:17:23.284Z,8.90
2017-04-04T04:18:22.318Z,8.80
2017-04-04T04:19:21.326Z,8.90
2017-04-04T04:20:20.311Z,9.10
2017-04-04T04:21:19.332Z,9.20
2017-04-04T04:22:18.313Z,9.20
2017-04-04T04:23:17.743Z,9.20
2017-04-04T04:24:16.775Z,9.20
2017-04-04T04:25:15.793Z,9.20
2017-04-04T04:26:15.065Z,9.20
2017-04-04T04:27:13.684Z,9.20
2017-04-04T04:28:13.396Z,9.10
2017-04-04T04:29:12.426Z,9.10
2017-04-04T04:30:11.447Z,9.10
2017-04-04T04:31:10.437Z,9.20
2017-04-04T04:32:09.455Z,9.20
2017-04-04T04:33:08.497Z,9.20
2017-04-04T04:34:07.803Z,9.20
2017-04-04T04:35:06.839Z,9.10
2017-04-04T04:36:05.839Z,9.20
2017-04-04T04:37:05.231Z,9.20
2017-04-04T04:38:03.855Z,9.20
2017-04-04T04:39:02.902Z,9.30
2017-04-04T04:40:01.505Z,9.30
2017-04-04T04:41:00.498Z,9.20
2017-04-04T04:41:59.046Z,9.20
2017-04-04T04:42:58.079Z,9.20
2017-04-04T04:43:57.088Z,9.20
2017-04-04T04:44:55.667Z,9.20
2017-04-04T04:45:54.651Z,9.10
2017-04-04T04:46:53.627Z,9.10
2017-04-04T04:47:52.603Z,9.00
2017-04-04T04:48:51.918Z,9.10
2017-04-04T04:49:50.916Z,9.10
2017-04-04T04:50:49.909Z,9.00
2017-04-04T04:51:48.516Z,9.00
2017-04-04T04:52:47.471Z,9.00
2017-04-04T04:53:46.479Z,8.90
2017-04-04T04:54:45.479Z,8.90
2017-04-04T04:55:44.455Z,8.90
2017-04-04T04:56:43.455Z,8.90
2017-04-04T04:57:42.816Z,8.90
2017-04-04T04:58:41.836Z,9.00
2017-04-04T04:59:40.415Z,9.00
2017-04-04T05:00:39.482Z,9.00
2017-04-04T05:01:38.058Z,9.00
2017-04-04T05:02:37.421Z,8.90
2017-04-04T05:03:36.456Z,9.00
2017-04-04T05:04:35.468Z,9.00
2017-04-04T05:05:34.460Z,9.00
2017-04-04T05:06:33.087Z,9.00
2017-04-04T05:07:32.441Z,8.90
2017-04-04T05:08:31.476Z,8.90
2017-04-04T05:09:30.032Z,8.90
2017-04-04T05:10:29.052Z,8.90
2017-04-04T05:11:27.627Z,8.90
2017-04-04T05:12:26.739Z,8.90
2017-04-04T05:13:25.724Z,9.00
2017-04-04T05:14:24.779Z,9.00
2017-04-04T05:15:23.745Z,9.00
2017-04-04T05:16:22.747Z,9.00
2017-04-04T05:17:22.515Z,9.00
2017-04-04T05:18:21.891Z,9.00
2017-04-04T05:19:20.880Z,9.00
2017-04-04T05:20:19.875Z,9.00
2017-04-04T05:21:19.242Z,9.00
2017-04-04T05:22:18.296Z,9.00
2017-04-04T05:23:17.333Z,9.00
2017-04-04T05:24:16.322Z,9.00
2017-04-04T05:25:15.371Z,9.10
2017-04-04T05:26:14.725Z,9.10
2017-04-04T05:27:13.751Z,9.10
2017-04-04T05:28:12.755Z,9.10
2017-04-04T05:29:11.756Z,9.10
2017-04-04T05:30:11.135Z,9.10
2017-04-04T05:31:09.892Z,9.10
2017-04-04T05:32:08.957Z,9.10
2017-04-04T05:33:08.040Z,9.10
2017-04-04T05:34:06.621Z,9.10
2017-04-04T05:35:05.773Z,9.10
2017-04-04T05:36:05.190Z,9.20
2017-04-04T05:37:04.188Z,9.20
2017-04-04T05:38:03.181Z,9.10
2017-04-04T05:39:02.156Z,9.10
2017-04-04T05:40:01.164Z,9.10
2017-04-04T05:41:00.164Z,9.00
2017-04-04T05:41:59.563Z,9.00
2017-04-04T05:42:59.003Z,9.00
2017-04-04T05:43:57.956Z,9.00
2017-04-04T05:44:56.966Z,9.00
2017-04-04T05:45:55.919Z,9.00
2017-04-04T05:46:54.898Z,9.00
2017-04-04T05:47:53.535Z,9.00
2017-04-04T05:48:52.507Z,9.10
2017-04-04T05:49:51.458Z,9.10
2017-04-04T05:50:50.028Z,9.10
2017-04-04T05:51:49.156Z,9.10
2017-04-04T05:52:48.130Z,9.20
2017-04-04T05:53:47.075Z,9.20
2017-04-04T05:54:46.135Z,9.30
2017-04-04T05:55:45.097Z,9.30
2017-04-04T05:56:44.139Z,9.30
2017-04-04T05:57:43.168Z,9.20
2017-04-04T05:58:42.183Z,9.20
2017-04-04T05:59:41.338Z,9.20
2017-04-04T06:00:40.320Z,9.20
2017-04-04T06:01:39.269Z,9.20
2017-04-04T06:02:38.070Z,9.30
2017-04-04T06:03:37.039Z,9.30
2017-04-04T06:04:36.417Z,9.30
2017-04-04T06:05:35.631Z,9.30
2017-04-04T06:06:34.635Z,9.30
2017-04-04T06:07:33.594Z,9.20
2017-04-04T06:08:32.602Z,9.20
2017-04-04T06:09:31.631Z,9.20
2017-04-04T06:10:30.260Z,9.20
2017-04-04T06:11:29.315Z,9.20
2017-04-04T06:12:29.093Z,9.20
2017-04-04T06:13:28.046Z,9.20
2017-04-04T06:14:27.098Z,9.20
2017-04-04T06:15:26.216Z,9.10
2017-04-04T06:16:25.207Z,9.10
2017-04-04T06:17:24.548Z,9.20
2017-04-04T06:18:23.170Z,9.20
2017-04-04T06:19:22.550Z,9.20
2017-04-04T06:20:21.147Z,9.20
2017-04-04T06:21:20.527Z,9.20
2017-04-04T06:22:19.560Z,9.20
2017-04-04T06:23:18.575Z,9.20
2017-04-04T06:24:17.518Z,9.20
2017-04-04T06:25:16.568Z,9.20
2017-04-04T06:26:15.552Z,9.20
2017-04-04T06:27:14.579Z,9.10
2017-04-04T06:28:14.299Z,9.10
2017-04-04T06:29:13.727Z,9.10
2017-04-04T06:30:13.107Z,9.10
2017-04-04T06:31:11.723Z,9.10
2017-04-04T06:32:10.704Z,9.20
2017-04-04T06:33:09.668Z,9.20
2017-04-04T06:34:08.296Z,9.20
2017-04-04T06:35:07.344Z,9.20
2017-04-04T06:36:06.332Z,9.20
2017-04-04T06:37:05.312Z,9.30
2017-04-04T06:38:04.315Z,9.40
2017-04-04T06:39:04.446Z,9.50
2017-04-04T06:40:03.498Z,9.50
2017-04-04T06:41:02.470Z,9.50
2017-04-04T06:42:01.456Z,9.40
2017-04-04T06:43:00.411Z,9.40
2017-04-04T06:43:59.333Z,9.50
2017-04-04T06:44:58.337Z,9.50
2017-04-04T06:45:57.288Z,9.50
2017-04-04T06:46:56.238Z,9.50
2017-04-04T06:47:55.222Z,9.60
2017-04-04T06:48:54.251Z,9.60
2017-04-04T06:49:53.215Z,9.60
2017-04-04T06:50:52.167Z,9.60
2017-04-04T06:51:51.135Z,9.60
2017-04-04T06:52:50.176Z,9.70
2017-04-04T06:53:49.228Z,9.70
2017-04-04T06:54:48.182Z,9.60
2017-04-04T06:55:47.151Z,9.70
2017-04-04T06:56:45.749Z,9.70
2017-04-04T06:57:44.764Z,9.80
2017-04-04T06:58:44.145Z,9.90
2017-04-04T06:59:43.180Z,9.80
2017-04-04T07:00:42.211Z,9.80
2017-04-04T07:01:41.235Z,9.80
2017-04-04T07:02:45.760Z,9.80
2017-04-04T07:03:44.482Z,9.80
2017-04-04T07:04:43.079Z,9.90
2017-04-04T07:05:42.471Z,9.90
2017-04-04T07:06:42.115Z,9.90
2017-04-04T07:07:42.124Z,9.90
2017-04-04T07:08:41.079Z,9.90
2017-04-04T07:09:40.071Z,9.80
2017-04-04T07:10:39.246Z,9.80
2017-04-04T07:11:38.330Z,9.80
2017-04-04T07:12:37.375Z,9.80
2017-04-04T07:13:35.913Z,9.80
2017-04-04T07:14:34.944Z,9.80
2017-04-04T07:15:33.962Z,9.80
2017-04-04T07:16:33.183Z,9.80
2017-04-04T07:17:32.408Z,9.90
2017-04-04T07:18:31.424Z,9.90
2017-04-04T07:19:30.745Z,9.90
2017-04-04T07:20:29.747Z,10.00
2017-04-04T07:21:28.791Z,10.00
2017-04-04T07:22:27.811Z,9.90
2017-04-04T07:23:26.932Z,9.90
2017-04-04T07:24:25.939Z,9.90
2017-04-04T07:25:24.480Z,9.90
2017-04-04T07:26:23.551Z,10.00
2017-04-04T07:27:22.548Z,10.00
2017-04-04T07:28:21.579Z,10.10
2017-04-04T07:29:20.957Z,10.10
2017-04-04T07:30:19.931Z,10.00
2017-04-04T07:31:18.907Z,10.00
2017-04-04T07:32:18.279Z,10.00
2017-04-04T07:33:17.235Z,10.00
2017-04-04T07:34:16.251Z,10.00
2017-04-04T07:35:14.928Z,10.10
2017-04-04T07:36:13.912Z,10.20
2017-04-04T07:37:12.979Z,10.20
2017-04-04T07:38:11.933Z,10.20
2017-04-04T07:39:10.951Z,10.20
2017-04-04T07:40:09.931Z,10.30
2017-04-04T07:41:08.970Z,10.10
2017-04-04T07:42:07.981Z,10.10
2017-04-04T07:43:07.016Z,10.10
2017-04-04T07:44:06.107Z,10.10
2017-04-04T07:45:05.101Z,10.10
2017-04-04T07:46:04.182Z,10.20
2017-04-04T07:47:03.236Z,10.30
2017-04-04T07:48:01.782Z,10.30
2017-04-04T07:49:01.172Z,10.40
2017-04-04T07:50:00.323Z,10.50
2017-04-04T07:50:59.375Z,10.40
2017-04-04T07:51:58.023Z,10.40
2017-04-04T07:52:56.604Z,10.40
2017-04-04T07:53:55.957Z,10.40
2017-04-04T07:54:55.011Z,10.40
2017-04-04T07:55:54.020Z,10.40
2017-04-04T07:56:52.656Z,10.50
2017-04-04T07:57:51.664Z,10.70
2017-04-04T07:58:50.648Z,10.80
2017-04-04T07:59:50.027Z,10.80
2017-04-04T08:00:49.051Z,10.70
2017-04-04T08:01:48.032Z,10.70
2017-04-04T08:02:46.603Z,10.70
2017-04-04T08:03:45.599Z,10.80
2017-04-04T08:04:44.624Z,10.90
2017-04-04T08:05:43.744Z,11.00
2017-04-04T08:06:42.770Z,11.00
2017-04-04T08:07:41.839Z,10.90
2017-04-04T08:08:40.798Z,11.00
2017-04-04T08:09:39.809Z,11.00
2017-04-04T08:10:38.875Z,11.10
2017-04-04T08:11:37.496Z,11.10
2017-04-04T08:12:36.475Z,11.10
2017-04-04T08:13:35.499Z,11.10
2017-04-04T08:14:34.523Z,11.10
2017-04-04T08:15:33.525Z,11.10
2017-04-04T08:16:32.560Z,11.10
2017-04-04T08:17:31.528Z,11.20
2017-04-04T08:18:30.532Z,11.40
2017-04-04T08:19:29.504Z,11.50
2017-04-04T08:20:28.539Z,11.60
2017-04-04T08:21:27.523Z,11.50
2017-04-04T08:22:26.536Z,11.50
2017-04-04T08:23:25.516Z,11.60
2017-04-04T08:24:24.600Z,11.70
2017-04-04T08:25:23.595Z,11.90
2017-04-04T08:26:22.224Z,11.90
2017-04-04T08:27:21.339Z,11.80
2017-04-04T08:28:20.343Z,11.90
2017-04-04T08:29:19.383Z,11.90
2017-04-04T08:30:18.531Z,11.80
2017-04-04T08:31:17.507Z,11.80
2017-04-04T08:32:16.540Z,11.90
2017-04-04T08:33:15.518Z,11.90
2017-04-04T08:34:14.445Z,11.90
2017-04-04T08:35:13.541Z,11.90
2017-04-04T08:36:12.551Z,12.00
2017-04-04T08:37:11.566Z,12.10
2017-04-04T08:38:10.631Z,12.10
2017-04-04T08:39:09.594Z,12.00
2017-04-04T08:40:08.652Z,12.10
2017-04-04T08:41:07.565Z,12.10
2017-04-04T08:42:06.587Z,12.10
2017-04-04T08:43:05.595Z,12.00
2017-04-04T08:44:04.231Z,12.00
2017-04-04T08:45:02.837Z,12.00
2017-04-04T08:46:01.821Z,12.10
2017-04-04T08:47:00.752Z,12.30
2017-04-04T08:47:59.764Z,12.40
2017-04-04T08:48:58.742Z,12.50
2017-04-04T08:49:57.760Z,12.40
2017-04-04T08:50:56.684Z,12.30
2017-04-04T08:51:55.684Z,12.10
2017-04-04T08:52:54.283Z,12.10
2017-04-04T08:53:53.283Z,12.30
2017-04-04T08:54:52.270Z,12.30
2017-04-04T08:55:51.260Z,12.20
2017-04-04T08:56:49.854Z,12.20
2017-04-04T08:57:48.821Z,12.50
2017-04-04T08:58:48.163Z,12.50
2017-04-04T08:59:47.191Z,12.40
2017-04-04T09:00:46.163Z,12.30
2017-04-04T09:01:45.229Z,12.40
2017-04-04T09:02:44.201Z,12.50
2017-04-04T09:03:42.786Z,12.50
2017-04-04T09:04:41.766Z,12.70
2017-04-04T09:05:40.747Z,12.60
2017-04-04T09:06:39.716Z,12.60
2017-04-04T09:07:38.687Z,12.50
2017-04-04T09:08:37.819Z,12.60
2017-04-04T09:09:36.382Z,12.60
2017-04-04T09:10:35.351Z,12.60
2017-04-04T09:11:34.410Z,12.60
2017-04-04T09:12:33.415Z,12.60
2017-04-04T09:13:32.399Z,12.60
2017-04-04T09:14:31.399Z,12.60
2017-04-04T09:15:30.387Z,12.50
2017-04-04T09:16:29.360Z,12.60
2017-04-04T09:17:28.282Z,12.70
2017-04-04T09:18:27.312Z,12.70
2017-04-04T09:19:26.298Z,12.90
2017-04-04T09:20:25.331Z,13.00
2017-04-04T09:21:23.982Z,13.00
2017-04-04T09:22:23.017Z,13.00
2017-04-04T09:23:21.979Z,13.10
2017-04-04T09:24:20.976Z,13.30
2017-04-04T09:25:19.541Z,13.30
2017-04-04T09:26:18.555Z,13.30
2017-04-04T09:27:17.551Z,13.40
2017-04-04T09:28:16.492Z,13.30
2017-04-04T09:29:15.536Z,13.40
2017-04-04T09:30:14.501Z,13.50
2017-04-04T09:31:13.555Z,13.70
2017-04-04T09:32:12.127Z,13.70
2017-04-04T09:33:11.196Z,13.80
2017-04-04T09:34:10.151Z,13.70
2017-04-04T09:35:09.189Z,13.50
2017-04-04T09:36:07.744Z,13.50
2017-04-04T09:37:06.845Z,13.50
2017-04-04T09:38:05.874Z,13.60
2017-04-04T09:39:05.643Z,13.70
2017-04-04T09:40:04.680Z,13.60
2017-04-04T09:41:03.656Z,13.40
2017-04-04T09:42:02.615Z,13.40
2017-04-04T09:43:01.624Z,13.50
2017-04-04T09:44:01.344Z,13.60
2017-04-04T09:44:59.907Z,13.60
2017-04-04T09:45:58.929Z,13.40
2017-04-04T09:46:57.921Z,13.50
2017-04-04T09:47:56.943Z,13.40
2017-04-04T09:48:56.035Z,13.50
2017-04-04T09:49:55.027Z,13.50
2017-04-04T09:50:54.966Z,13.60
2017-04-04T09:51:54.310Z,13.70
2017-04-04T09:52:53.287Z,13.70
2017-04-04T09:53:52.246Z,13.70
2017-04-04T09:54:51.760Z,13.70
2017-04-04T09:55:50.703Z,13.80
2017-04-04T09:56:49.655Z,13.80
2017-04-04T09:57:48.644Z,13.90
2017-04-04T09:58:47.224Z,13.90
2017-04-04T09:59:46.220Z,14.20
2017-04-04T10:00:45.206Z,14.30
2017-04-04T10:01:44.226Z,14.60
2017-04-04T10:02:43.232Z,14.70
2017-04-04T10:03:42.213Z,14.90
2017-04-04T10:04:41.182Z,15.00
2017-04-04T10:05:40.174Z,14.80
2017-04-04T10:06:39.172Z,14.80
2017-04-04T10:07:38.201Z,14.90
2017-04-04T10:08:37.247Z,14.80
2017-04-04T10:09:36.228Z,15.00
2017-04-04T10:10:35.312Z,15.00
2017-04-04T10:11:34.324Z,14.90
2017-04-04T10:12:33.339Z,14.90
2017-04-04T10:13:32.325Z,14.90
2017-04-04T10:14:31.363Z,14.80
2017-04-04T10:15:30.382Z,15.10
2017-04-04T10:16:29.742Z,15.00
2017-04-04T10:17:28.373Z,15.00
2017-04-04T10:18:27.500Z,15.10
2017-04-04T10:19:26.402Z,15.00
2017-04-04T10:20:25.422Z,14.80
2017-04-04T10:21:24.427Z,14.80
2017-04-04T10:22:23.425Z,14.60
2017-04-04T10:23:22.383Z,14.70
2017-04-04T10:24:21.902Z,14.70
2017-04-04T10:25:20.903Z,14.80
2017-04-04T10:26:20.228Z,15.00
2017-04-04T10:27:19.237Z,15.10
2017-04-04T10:28:18.374Z,15.30
2017-04-04T10:29:17.018Z,15.30
2017-04-04T10:30:16.276Z,15.30
2017-04-04T10:31:15.250Z,15.40
2017-04-04T10:32:13.835Z,15.40
2017-04-04T10:33:12.795Z,15.30
2017-04-04T10:34:11.851Z,15.20
2017-04-04T10:35:10.945Z,15.40
2017-04-04T10:36:09.934Z,15.50
2017-04-04T10:37:08.944Z,15.30
2017-04-04T10:38:07.940Z,15.30
2017-04-04T10:39:07.263Z,15.10
2017-04-04T10:40:06.231Z,15.20
2017-04-04T10:41:05.655Z,15.40
2017-04-04T10:42:04.647Z,15.70
2017-04-04T10:43:03.998Z,15.60
2017-04-04T10:44:03.341Z,15.70
2017-04-04T10:45:02.388Z,15.50
2017-04-04T10:46:01.391Z,15.10
2017-04-04T10:47:00.780Z,15.00
2017-04-04T10:47:59.816Z,15.00
2017-04-04T10:48:58.491Z,15.00
2017-04-04T10:49:57.451Z,15.20
2017-04-04T10:50:56.443Z,15.50
2017-04-04T10:51:55.447Z,15.30
2017-04-04T10:52:54.433Z,15.20
2017-04-04T10:53:53.458Z,15.30
2017-04-04T10:54:52.456Z,15.40
2017-04-04T10:55:51.839Z,15.40
2017-04-04T10:56:51.193Z,15.60
2017-04-04T10:57:49.815Z,15.60
2017-04-04T10:58:49.162Z,16.10
2017-04-04T10:59:48.151Z,16.20
2017-04-04T11:00:46.715Z,16.20
2017-04-04T11:01:45.735Z,16.40
2017-04-04T11:02:44.750Z,16.50
2017-04-04T11:03:43.728Z,16.50
2017-04-04T11:04:42.703Z,16.50
2017-04-04T11:05:41.250Z,16.50
2017-04-04T11:06:40.343Z,15.70
2017-04-04T11:07:39.286Z,15.60
2017-04-04T11:08:38.224Z,15.50
2017-04-04T11:09:37.258Z,15.50
2017-04-04T11:10:36.255Z,15.30
2017-04-04T11:11:35.178Z,15.00
2017-04-04T11:12:33.793Z,15.00
2017-04-04T11:13:32.790Z,15.40
2017-04-04T11:14:31.773Z,15.50
2017-04-04T11:15:30.763Z,15.50
2017-04-04T11:16:29.803Z,15.50
2017-04-04T11:17:28.812Z,15.60
2017-04-04T11:18:27.899Z,15.80
2017-04-04T11:19:26.922Z,16.00
2017-04-04T11:20:25.914Z,16.10
2017-04-04T11:21:25.289Z,16.10
2017-04-04T11:22:24.296Z,15.90
2017-04-04T11:23:24.031Z,16.00
2017-04-04T11:24:23.049Z,16.00
2017-04-04T11:25:21.998Z,16.00
2017-04-04T11:26:20.942Z,16.10
2017-04-04T11:27:19.954Z,16.20
2017-04-04T11:28:18.964Z,16.00
2017-04-04T11:29:17.932Z,16.00
2017-04-04T11:30:16.923Z,16.00
2017-04-04T11:31:15.490Z,16.00
2017-04-04T11:32:14.507Z,16.00
2017-04-04T11:33:13.495Z,16.20
2017-04-04T11:34:12.619Z,16.30
2017-04-04T11:35:11.643Z,16.20
2017-04-04T11:36:10.271Z,16.20
2017-04-04T11:37:08.883Z,15.90
2017-04-04T11:38:07.519Z,15.70
2017-04-04T11:39:06.545Z,15.70
2017-04-04T11:40:05.224Z,15.80
2017-04-04T11:41:04.216Z,15.70
2017-04-04T11:42:03.245Z,15.70
2017-04-04T11:43:02.622Z,15.80
2017-04-04T11:44:01.599Z,15.70
2017-04-04T11:45:00.551Z,15.60
2017-04-04T11:45:59.534Z,15.70
2017-04-04T11:46:58.511Z,15.80
2017-04-04T11:47:57.071Z,15.80
2017-04-04T11:48:56.056Z,15.90
2017-04-04T11:49:55.083Z,15.80
2017-04-04T11:50:54.074Z,15.80
2017-04-04T11:51:53.187Z,15.80
2017-04-04T11:52:52.296Z,15.80
2017-04-04T11:53:50.949Z,15.80
2017-04-04T11:54:49.542Z,15.90
2017-04-04T11:55:48.544Z,16.00
2017-04-04T11:56:47.490Z,16.20
2017-04-04T11:57:46.591Z,16.20
2017-04-04T11:58:45.495Z,16.30
2017-04-04T11:59:44.135Z,16.30
2017-04-04T12:00:43.130Z,16.10
2017-04-04T12:01:41.687Z,16.10
2017-04-04T12:02:41.128Z,16.10
2017-04-04T12:03:40.120Z,16.00
2017-04-04T12:04:39.124Z,16.00
2017-04-04T12:05:38.087Z,15.90
2017-04-04T12:06:37.196Z,15.80
2017-04-04T12:07:35.888Z,15.80
2017-04-04T12:08:35.187Z,15.80
2017-04-04T12:09:34.187Z,15.70
2017-04-04T12:10:32.718Z,15.70
2017-04-04T12:11:31.307Z,15.60
2017-04-04T12:12:30.649Z,15.60
2017-04-04T12:13:29.223Z,15.60
2017-04-04T12:14:28.203Z,15.50
2017-04-04T12:15:27.203Z,15.50
2017-04-04T12:16:26.308Z,15.50
2017-04-04T12:17:25.331Z,15.40
2017-04-04T12:18:24.491Z,15.40
2017-04-04T12:19:23.500Z,15.40
2017-04-04T12:20:22.543Z,15.50
2017-04-04T12:21:21.655Z,15.40
2017-04-04T12:22:20.956Z,15.30
2017-04-04T12:23:19.983Z,15.30
2017-04-04T12:24:18.984Z,15.30
2017-04-04T12:25:18.011Z,15.30
2017-04-04T12:26:17.020Z,15.40
2017-04-04T12:27:16.047Z,15.30
2017-04-04T12:28:15.057Z,15.30
2017-04-04T12:29:14.403Z,15.40
2017-04-04T12:30:13.369Z,15.40
2017-04-04T12:31:12.328Z,15.40
2017-04-04T12:32:11.347Z,15.40
2017-04-04T12:33:10.348Z,15.50
2017-04-04T12:34:09.303Z,15.60
2017-04-04T12:35:08.327Z,15.60
2017-04-04T12:36:07.380Z,15.80
2017-04-04T12:37:06.385Z,15.90
2017-04-04T12:38:05.381Z,15.80
2017-04-04T12:39:05.035Z,15.60
2017-04-04T12:40:04.072Z,15.60
2017-04-04T12:41:03.049Z,15.60
2017-04-04T12:42:02.048Z,15.60
2017-04-04T12:43:01.058Z,15.60
2017-04-04T12:44:00.112Z,15.60
2017-04-04T12:44:59.128Z,15.60
2017-04-04T12:45:58.116Z,15.60
2017-04-04T12:46:57.112Z,15.60
2017-04-04T12:47:56.129Z,15.60
2017-04-04T12:48:55.128Z,15.60